createdAt,value
2023-06-29T00:00:07.528Z,14.61
2023-06-29T00:02:56.077Z,14.53
2023-06-29T00:05:25.164Z,14.57
2023-06-29T00:07:53.835Z,14.53
2023-06-29T00:10:25.777Z,14.56
2023-06-29T00:12:54.405Z,14.53
2023-06-29T00:15:23.146Z,14.51
2023-06-29T00:17:51.961Z,14.58
2023-06-29T00:20:20.829Z,14.62
2023-06-29T00:22:49.553Z,14.62
2023-06-29T00:25:18.917Z,14.54
2023-06-29T00:27:47.424Z,14.49
2023-06-29T00:30:16.941Z,14.44
2023-06-29T00:32:45.697Z,14.42
2023-06-29T00:35:14.859Z,14.38
2023-06-29T00:37:46.320Z,14.40
2023-06-29T00:40:15.236Z,14.38
2023-06-29T00:42:45.012Z,14.37
2023-06-29T00:45:13.881Z,14.39
2023-06-29T00:47:43.280Z,14.39
2023-06-29T00:50:12.578Z,14.35
2023-06-29T00:52:42.539Z,14.29
2023-06-29T00:55:11.268Z,14.25
2023-06-29T00:57:41.367Z,14.23
2023-06-29T01:00:12.264Z,14.19
2023-06-29T01:02:42.312Z,14.20
2023-06-29T01:05:14.191Z,14.22
2023-06-29T01:08:14.788Z,14.26
2023-06-29T01:10:47.394Z,14.23
2023-06-29T01:13:19.945Z,14.23
2023-06-29T01:15:50.468Z,14.19
2023-06-29T01:18:21.461Z,14.19
2023-06-29T01:20:51.367Z,14.15
2023-06-29T01:23:28.413Z,14.11
2023-06-29T01:25:57.823Z,14.14
2023-06-29T01:28:30.445Z,14.16
2023-06-29T01:31:04.223Z,14.10
2023-06-29T01:33:33.920Z,14.13
2023-06-29T01:36:23.255Z,14.10
2023-06-29T01:39:01.555Z,14.12
2023-06-29T01:41:35.950Z,14.14
2023-06-29T01:44:07.376Z,14.10
2023-06-29T01:46:37.484Z,14.00
2023-06-29T01:49:06.682Z,13.96
2023-06-29T01:51:35.511Z,14.03
2023-06-29T01:54:04.453Z,14.05
2023-06-29T01:56:34.136Z,14.09
2023-06-29T01:59:05.793Z,14.10
2023-06-29T02:01:34.847Z,14.10
2023-06-29T02:04:05.336Z,14.10
2023-06-29T02:06:33.905Z,14.08
2023-06-29T02:09:02.883Z,14.08
2023-06-29T02:11:31.646Z,14.07
2023-06-29T02:14:00.381Z,14.06
2023-06-29T02:16:29.316Z,13.92
2023-06-29T02:18:58.183Z,14.00
2023-06-29T02:21:27.073Z,14.01
2023-06-29T02:23:55.963Z,13.94
2023-06-29T02:26:27.485Z,13.94
2023-06-29T02:28:56.204Z,13.98
2023-06-29T02:31:25.588Z,13.99
2023-06-29T02:33:55.243Z,13.99
2023-06-29T02:36:24.174Z,13.96
2023-06-29T02:38:52.975Z,13.97
2023-06-29T02:41:22.990Z,13.93
2023-06-29T02:43:52.211Z,13.96
2023-06-29T02:46:24.633Z,13.94
2023-06-29T02:48:53.428Z,14.02
2023-06-29T02:51:23.785Z,14.02
2023-06-29T02:53:52.902Z,14.00
2023-06-29T02:56:24.978Z,14.02
2023-06-29T02:58:54.254Z,14.04
2023-06-29T04:00:22.636Z,15.62
2023-06-29T04:02:53.972Z,15.89
2023-06-29T04:05:23.073Z,15.96
2023-06-29T04:07:51.615Z,15.82
2023-06-29T04:10:22.644Z,15.85
2023-06-29T04:12:51.500Z,15.80
2023-06-29T04:15:26.423Z,15.77
2023-06-29T04:17:57.008Z,15.68
2023-06-29T04:20:26.072Z,15.75
2023-06-29T04:22:54.817Z,15.67
2023-06-29T04:25:23.469Z,15.72
2023-06-29T04:27:52.272Z,15.76
2023-06-29T04:30:21.224Z,15.76
2023-06-29T04:32:50.063Z,15.76
2023-06-29T04:35:18.869Z,15.77
2023-06-29T04:37:47.577Z,15.80
2023-06-29T04:40:16.294Z,15.83
2023-06-29T04:42:49.430Z,15.83
2023-06-29T04:45:21.512Z,15.82
2023-06-29T04:47:53.375Z,15.83
2023-06-29T04:50:32.481Z,15.83
2023-06-29T04:53:07.497Z,15.86
2023-06-29T04:55:39.134Z,15.92
2023-06-29T04:58:10.963Z,15.96
2023-06-29T05:00:53.026Z,16.06
2023-06-29T05:03:22.373Z,16.10
2023-06-29T05:05:51.324Z,16.13
2023-06-29T05:08:20.222Z,16.17
2023-06-29T05:10:49.521Z,16.16
2023-06-29T05:13:18.416Z,16.32
2023-06-29T05:15:50.481Z,16.36
2023-06-29T05:18:19.591Z,16.38
2023-06-29T05:20:48.789Z,16.41
2023-06-29T05:23:17.441Z,16.42
2023-06-29T05:25:47.648Z,16.42
2023-06-29T05:28:19.549Z,16.46
2023-06-29T05:30:48.606Z,16.55
2023-06-29T05:33:19.392Z,16.60
2023-06-29T05:35:48.141Z,16.62
2023-06-29T05:38:17.093Z,16.72
2023-06-29T05:40:46.114Z,16.81
2023-06-29T05:43:18.997Z,16.86
2023-06-29T05:45:47.911Z,17.02
2023-06-29T05:48:16.866Z,17.11
2023-06-29T05:50:46.129Z,17.20
2023-06-29T05:53:15.060Z,17.26
2023-06-29T05:55:44.326Z,17.38
2023-06-29T05:58:13.102Z,17.38
2023-06-29T06:00:42.673Z,17.48
2023-06-29T06:03:11.972Z,17.46
2023-06-29T06:05:40.897Z,17.53
2023-06-29T06:08:10.518Z,17.62
2023-06-29T06:10:39.655Z,17.65
2023-06-29T06:13:14.151Z,17.69
2023-06-29T06:15:44.678Z,17.80
2023-06-29T06:18:15.570Z,17.86
2023-06-29T06:20:44.771Z,17.91
2023-06-29T06:23:13.660Z,17.98
2023-06-29T06:25:42.418Z,18.06
2023-06-29T06:28:12.627Z,18.14
2023-06-29T06:30:41.449Z,18.13
2023-06-29T06:33:10.713Z,18.28
2023-06-29T06:35:39.462Z,18.36
2023-06-29T06:38:08.382Z,18.43
2023-06-29T06:40:38.051Z,18.47
2023-06-29T06:43:06.965Z,18.57
2023-06-29T06:45:36.029Z,18.64
2023-06-29T06:48:08.793Z,18.68
2023-06-29T06:50:59.475Z,18.77
2023-06-29T06:53:28.452Z,18.85
2023-06-29T06:55:57.259Z,18.87
2023-06-29T06:58:26.132Z,19.02
2023-06-29T07:00:55.414Z,19.09
2023-06-29T07:03:26.094Z,19.13
2023-06-29T07:05:56.801Z,19.22
2023-06-29T07:08:25.838Z,19.40
2023-06-29T07:10:54.931Z,19.48
2023-06-29T07:13:25.659Z,19.55
2023-06-29T07:15:56.967Z,19.65
2023-06-29T07:18:26.364Z,19.85
2023-06-29T07:26:00.400Z,20.08
2023-06-29T07:28:29.542Z,20.05
2023-06-29T07:30:58.757Z,20.02
2023-06-29T07:33:34.188Z,20.03
2023-06-29T07:36:07.122Z,19.96
2023-06-29T07:38:36.103Z,19.94
2023-06-29T07:41:07.169Z,20.02
2023-06-29T07:44:05.133Z,20.15
2023-06-29T07:46:34.857Z,20.27
2023-06-29T07:49:05.638Z,20.31
2023-06-29T07:51:35.123Z,20.42
2023-06-29T07:54:06.018Z,20.42
2023-06-29T07:59:09.505Z,20.52
2023-06-29T08:01:38.601Z,20.42
2023-06-29T08:04:08.598Z,20.32
2023-06-29T08:06:50.819Z,20.37
2023-06-29T08:09:22.159Z,20.48
2023-06-29T08:11:52.589Z,20.56
2023-06-29T08:14:21.462Z,20.48
2023-06-29T08:16:50.594Z,20.38
2023-06-29T08:19:19.749Z,20.39
2023-06-29T08:21:49.325Z,20.34
2023-06-29T08:24:22.209Z,20.39
2023-06-29T08:26:52.083Z,20.44
2023-06-29T08:29:26.881Z,20.39
2023-06-29T08:32:00.389Z,20.45
2023-06-29T08:34:31.772Z,20.59
2023-06-29T08:37:01.074Z,20.75
2023-06-29T08:39:29.595Z,20.80
2023-06-29T08:42:08.118Z,20.85
2023-06-29T08:44:37.067Z,20.93
2023-06-29T08:47:07.326Z,21.04
2023-06-29T08:49:39.361Z,20.94
2023-06-29T08:52:12.987Z,20.97
2023-06-29T08:54:42.361Z,21.03
2023-06-29T08:57:11.110Z,21.09
2023-06-29T08:59:42.485Z,21.25
2023-06-29T09:02:14.090Z,21.46
2023-06-29T09:04:42.948Z,21.52
2023-06-29T09:07:12.418Z,21.47
2023-06-29T09:09:41.367Z,21.55
2023-06-29T09:12:13.310Z,21.71
2023-06-29T09:14:46.064Z,21.84
2023-06-29T09:17:17.788Z,21.94
2023-06-29T09:19:58.224Z,21.91
2023-06-29T09:22:29.516Z,21.84
2023-06-29T09:25:07.078Z,21.76
2023-06-29T09:27:42.041Z,21.76
2023-06-29T09:30:17.171Z,21.65
2023-06-29T09:32:46.076Z,21.59
2023-06-29T09:35:14.903Z,21.53
2023-06-29T09:37:45.313Z,21.41
2023-06-29T09:40:14.377Z,21.35
2023-06-29T09:42:42.944Z,21.20
2023-06-29T09:45:12.917Z,21.07
2023-06-29T09:50:25.985Z,20.83
2023-06-29T09:52:56.757Z,20.73
2023-06-29T09:55:31.502Z,20.71
2023-06-29T09:58:02.335Z,20.66
2023-06-29T10:00:33.989Z,20.67
2023-06-29T10:03:03.098Z,20.57
2023-06-29T10:05:33.379Z,20.58
2023-06-29T10:08:06.693Z,20.51
2023-06-29T10:10:37.688Z,20.48
2023-06-29T10:13:08.378Z,20.54
2023-06-29T10:15:39.327Z,20.55
2023-06-29T10:18:16.572Z,20.61
2023-06-29T10:20:46.885Z,20.63
2023-06-29T10:23:18.776Z,20.61
2023-06-29T10:25:51.450Z,20.59
2023-06-29T10:28:20.723Z,20.61
2023-06-29T10:30:52.396Z,20.59
2023-06-29T10:33:24.586Z,20.62
2023-06-29T10:36:05.021Z,20.66
2023-06-29T10:38:36.338Z,20.71
2023-06-29T10:41:08.227Z,20.77
2023-06-29T10:44:02.617Z,20.86
2023-06-29T10:46:55.843Z,20.96
2023-06-29T10:49:26.893Z,21.10
2023-06-29T10:52:06.769Z,21.29
2023-06-29T10:54:35.530Z,21.51
2023-06-29T10:57:08.914Z,21.62
2023-06-29T10:59:40.078Z,21.82
2023-06-29T11:02:10.310Z,21.85
2023-06-29T11:04:41.761Z,21.92
2023-06-29T11:07:11.801Z,22.04
2023-06-29T11:09:40.658Z,22.10
2023-06-29T11:12:10.638Z,22.15
2023-06-29T11:14:41.036Z,22.27
2023-06-29T11:17:10.182Z,22.19
2023-06-29T11:19:44.386Z,22.35
2023-06-29T11:22:13.352Z,22.39
2023-06-29T11:24:45.547Z,22.43
2023-06-29T11:27:20.186Z,22.57
2023-06-29T11:29:56.148Z,22.75
2023-06-29T11:32:27.552Z,22.91
2023-06-29T11:35:04.016Z,23.13
2023-06-29T11:37:36.624Z,23.27
2023-06-29T11:40:09.135Z,23.41
2023-06-29T11:42:38.196Z,23.53
2023-06-29T11:45:08.465Z,23.56
2023-06-29T11:47:38.266Z,23.53
2023-06-29T11:50:09.332Z,23.37
2023-06-29T11:52:41.826Z,23.09
2023-06-29T11:55:17.075Z,22.93
2023-06-29T11:57:55.881Z,22.80
2023-06-29T12:00:33.118Z,22.68
2023-06-29T12:03:09.827Z,22.55
2023-06-29T12:05:43.621Z,22.48
2023-06-29T12:08:13.013Z,22.39
2023-06-29T12:10:41.878Z,22.32
2023-06-29T12:13:11.676Z,22.26
2023-06-29T12:18:18.218Z,22.17
2023-06-29T12:20:49.009Z,22.10
2023-06-29T12:23:18.077Z,21.99
2023-06-29T12:25:49.558Z,22.02
2023-06-29T12:28:18.508Z,22.01
2023-06-29T12:30:47.468Z,22.03
2023-06-29T12:33:16.728Z,21.97
2023-06-29T12:35:45.347Z,21.91
2023-06-29T12:38:14.319Z,21.90
2023-06-29T12:40:43.141Z,21.83
2023-06-29T12:43:12.352Z,21.64
2023-06-29T12:45:41.857Z,21.57
2023-06-29T12:48:10.682Z,21.46
2023-06-29T12:50:39.845Z,21.42
2023-06-29T12:53:08.819Z,21.41
2023-06-29T12:55:37.552Z,21.41
2023-06-29T12:58:06.549Z,21.43
2023-06-29T13:00:35.580Z,21.40
2023-06-29T13:03:09.010Z,21.47
2023-06-29T13:05:38.020Z,21.56
2023-06-29T13:08:07.100Z,21.99
2023-06-29T13:10:35.762Z,22.42
2023-06-29T13:13:05.186Z,22.96
2023-06-29T13:15:33.876Z,23.77
2023-06-29T13:18:02.651Z,24.51
2023-06-29T13:20:33.739Z,25.37
2023-06-29T13:23:02.685Z,26.01
2023-06-29T13:25:31.630Z,26.63
2023-06-29T13:28:00.352Z,27.16
2023-06-29T13:30:29.173Z,27.79
2023-06-29T13:32:58.732Z,28.28
2023-06-29T13:35:27.480Z,28.83
2023-06-29T13:37:56.196Z,29.22
2023-06-29T13:40:24.929Z,29.39
2023-06-29T13:42:53.807Z,29.10
2023-06-29T13:45:22.587Z,28.41
2023-06-29T13:48:03.670Z,27.94
2023-06-29T13:50:41.377Z,27.24
2023-06-29T13:53:10.842Z,26.75
2023-06-29T13:55:39.568Z,26.40
2023-06-29T13:58:08.342Z,25.98
2023-06-29T14:00:37.438Z,25.94
2023-06-29T14:03:06.274Z,26.33
2023-06-29T14:05:36.083Z,26.47
2023-06-29T14:08:05.235Z,26.43
2023-06-29T14:10:33.922Z,26.31
2023-06-29T14:13:02.708Z,26.22
2023-06-29T14:15:32.594Z,26.02
2023-06-29T14:18:03.309Z,25.86
2023-06-29T14:20:32.059Z,26.06
2023-06-29T14:23:01.336Z,26.16
2023-06-29T14:25:30.175Z,26.25
2023-06-29T14:27:58.795Z,26.27
2023-06-29T14:30:27.505Z,26.20
2023-06-29T14:32:56.234Z,25.98
2023-06-29T14:35:30.990Z,26.21
2023-06-29T14:38:13.513Z,26.35
2023-06-29T14:40:43.490Z,26.02
2023-06-29T14:43:12.742Z,25.67
2023-06-29T14:45:42.555Z,25.55
2023-06-29T14:48:12.363Z,25.68
2023-06-29T14:50:41.012Z,25.89
2023-06-29T14:53:09.962Z,26.37
2023-06-29T14:55:38.750Z,26.88
2023-06-29T14:58:07.439Z,27.45
2023-06-29T15:00:36.048Z,27.78
2023-06-29T15:03:05.295Z,27.78
2023-06-29T15:05:33.997Z,27.47
2023-06-29T15:08:02.529Z,26.94
2023-06-29T15:10:31.192Z,26.47
2023-06-29T15:12:59.704Z,26.02
2023-06-29T15:15:28.642Z,25.11
2023-06-29T15:18:01.589Z,23.82
2023-06-29T15:20:30.357Z,22.64
2023-06-29T15:23:00.175Z,21.91
2023-06-29T15:25:29.190Z,21.58
2023-06-29T15:27:59.429Z,21.24
2023-06-29T15:30:28.948Z,21.11
2023-06-29T15:32:57.977Z,21.42
2023-06-29T15:35:26.945Z,22.05
2023-06-29T15:37:56.180Z,22.54
2023-06-29T15:40:27.919Z,22.90
2023-06-29T15:42:59.157Z,23.33
2023-06-29T15:45:29.721Z,23.76
2023-06-29T15:47:58.467Z,23.90
2023-06-29T15:50:27.212Z,23.90
2023-06-29T15:52:55.973Z,23.85
2023-06-29T15:55:24.563Z,23.82
2023-06-29T15:57:53.427Z,23.93
2023-06-29T16:00:22.558Z,24.16
2023-06-29T16:02:51.130Z,24.25
2023-06-29T16:05:19.849Z,24.52
2023-06-29T16:07:49.054Z,25.23
2023-06-29T16:10:17.688Z,25.86
2023-06-29T16:12:46.389Z,26.46
2023-06-29T16:15:15.235Z,26.97
2023-06-29T16:17:45.361Z,27.31
2023-06-29T16:20:14.203Z,27.47
2023-06-29T16:22:42.761Z,27.72
2023-06-29T16:25:11.408Z,27.72
2023-06-29T16:27:40.025Z,27.91
2023-06-29T16:30:09.733Z,28.07
2023-06-29T16:32:38.628Z,28.34
2023-06-29T16:35:07.710Z,28.44
2023-06-29T16:37:36.956Z,28.28
2023-06-29T16:40:06.566Z,27.59
2023-06-29T16:42:35.406Z,26.77
2023-06-29T16:45:04.665Z,26.24
2023-06-29T16:47:33.429Z,25.73
2023-06-29T16:50:02.348Z,25.24
2023-06-29T16:52:31.266Z,24.91
2023-06-29T16:54:59.813Z,24.72
2023-06-29T16:57:28.492Z,24.29
2023-06-29T16:59:57.272Z,23.88
2023-06-29T17:02:26.059Z,23.67
2023-06-29T17:04:54.902Z,23.58
2023-06-29T17:07:23.568Z,23.55
2023-06-29T17:09:52.334Z,23.39
2023-06-29T17:12:21.078Z,23.24
2023-06-29T17:14:49.854Z,23.18
2023-06-29T17:17:18.697Z,23.02
2023-06-29T17:19:50.349Z,22.90
2023-06-29T17:22:19.230Z,22.84
2023-06-29T17:24:48.015Z,22.77
2023-06-29T17:27:17.294Z,22.58
2023-06-29T17:29:50.726Z,22.47
2023-06-29T17:32:19.553Z,22.38
2023-06-29T17:34:48.431Z,22.34
2023-06-29T17:37:17.937Z,22.25
2023-06-29T17:39:46.485Z,22.13
2023-06-29T17:42:21.079Z,22.19
2023-06-29T17:44:50.299Z,22.13
2023-06-29T17:47:19.042Z,22.02
2023-06-29T17:49:47.712Z,21.97
2023-06-29T17:52:17.507Z,21.89
2023-06-29T17:54:49.795Z,21.84
2023-06-29T17:57:18.608Z,21.81
2023-06-29T17:59:47.393Z,21.64
2023-06-29T18:02:17.487Z,21.59
2023-06-29T18:04:46.246Z,21.54
2023-06-29T18:07:14.954Z,21.50
2023-06-29T18:09:44.055Z,21.49
2023-06-29T18:12:12.705Z,21.48
2023-06-29T18:14:41.352Z,21.38
2023-06-29T18:17:09.945Z,21.30
2023-06-29T18:19:38.671Z,21.24
2023-06-29T18:22:07.662Z,21.19
2023-06-29T18:24:37.193Z,21.15
2023-06-29T18:27:06.426Z,21.06
2023-06-29T18:29:35.185Z,20.95
2023-06-29T18:32:04.282Z,20.87
2023-06-29T18:34:32.714Z,20.85
2023-06-29T18:37:01.411Z,20.81
2023-06-29T18:39:30.095Z,20.78
2023-06-29T18:41:59.583Z,20.76
2023-06-29T18:44:28.272Z,20.73
2023-06-29T18:47:15.165Z,20.71
2023-06-29T18:49:52.119Z,20.63
2023-06-29T18:52:21.750Z,20.59
2023-06-29T18:54:52.623Z,20.55
2023-06-29T18:57:21.816Z,20.49
2023-06-29T18:59:50.498Z,20.41
2023-06-29T19:02:19.466Z,20.37
2023-06-29T19:04:48.210Z,20.40
2023-06-29T19:07:17.965Z,20.45
2023-06-29T19:09:48.784Z,20.47
2023-06-29T19:12:17.746Z,20.45
2023-06-29T19:14:46.452Z,20.42
2023-06-29T19:17:15.298Z,20.36
2023-06-29T19:19:46.278Z,20.37
2023-06-29T19:22:15.046Z,20.34
2023-06-29T19:24:43.848Z,20.33
2023-06-29T19:27:12.490Z,20.31
2023-06-29T19:29:41.213Z,20.31
2023-06-29T19:32:10.579Z,20.34
2023-06-29T19:34:39.173Z,20.37
2023-06-29T19:37:07.821Z,20.39
2023-06-29T19:39:36.741Z,20.40
2023-06-29T19:42:06.525Z,20.40
2023-06-29T19:44:35.413Z,20.40
2023-06-29T19:47:04.813Z,20.40
2023-06-29T19:49:33.493Z,20.39
2023-06-29T19:52:02.262Z,20.36
2023-06-29T19:54:31.056Z,20.32
2023-06-29T19:57:00.134Z,20.28
2023-06-29T19:59:29.175Z,20.23
2023-06-29T20:01:58.465Z,20.16
2023-06-29T20:04:27.527Z,20.14
2023-06-29T20:06:56.277Z,20.11
2023-06-29T20:09:24.958Z,20.04
2023-06-29T20:11:54.111Z,19.95
2023-06-29T20:14:22.601Z,19.88
2023-06-29T20:16:51.838Z,19.80
2023-06-29T20:19:20.362Z,19.74
2023-06-29T20:21:49.022Z,19.70
2023-06-29T20:24:17.918Z,19.65
2023-06-29T20:26:47.635Z,19.59
2023-06-29T20:29:16.895Z,19.51
2023-06-29T20:31:45.648Z,19.33
2023-06-29T20:34:16.496Z,19.29
2023-06-29T20:36:45.182Z,19.25
2023-06-29T20:39:13.937Z,19.18
2023-06-29T20:41:42.802Z,19.13
2023-06-29T20:44:15.586Z,19.07
2023-06-29T20:46:44.527Z,19.06
2023-06-29T20:49:15.678Z,18.97
2023-06-29T20:51:44.300Z,19.01
2023-06-29T20:54:13.500Z,19.02
2023-06-29T20:56:42.533Z,18.99
2023-06-29T20:59:11.657Z,18.96
2023-06-29T21:01:40.934Z,18.94
2023-06-29T21:04:10.875Z,18.94
2023-06-29T21:06:39.721Z,18.89
2023-06-29T21:09:08.477Z,18.92
2023-06-29T21:11:39.587Z,18.87
2023-06-29T21:14:10.926Z,18.88
2023-06-29T21:16:41.238Z,18.83
2023-06-29T21:19:10.188Z,18.86
2023-06-29T21:21:40.032Z,18.82
2023-06-29T21:24:08.917Z,18.75
2023-06-29T21:26:38.183Z,18.75
2023-06-29T21:29:22.534Z,18.79
2023-06-29T21:32:03.938Z,18.80
2023-06-29T21:34:33.312Z,18.73
2023-06-29T21:37:03.447Z,18.71
2023-06-29T21:39:32.084Z,18.65
2023-06-29T21:42:01.077Z,18.62
2023-06-29T21:44:29.792Z,18.60
2023-06-29T21:47:01.549Z,18.60
2023-06-29T21:49:30.524Z,18.56
2023-06-29T21:51:59.693Z,18.55
2023-06-29T21:54:28.339Z,18.54
2023-06-29T21:56:57.178Z,18.50
2023-06-29T21:59:25.839Z,18.41
2023-06-29T22:01:54.664Z,18.42
2023-06-29T22:04:24.664Z,18.42
2023-06-29T22:07:02.546Z,18.32
2023-06-29T22:09:35.321Z,18.39
2023-06-29T22:12:05.903Z,18.43
2023-06-29T22:14:34.869Z,18.47
2023-06-29T22:17:03.637Z,18.49
2023-06-29T22:19:33.956Z,18.51
2023-06-29T22:22:02.799Z,18.50
2023-06-29T22:24:31.447Z,18.42
2023-06-29T22:27:00.297Z,18.36
2023-06-29T22:29:29.102Z,18.30
2023-06-29T22:31:57.788Z,18.14
2023-06-29T22:34:26.550Z,18.08
2023-06-29T22:36:55.182Z,18.06
2023-06-29T22:39:24.641Z,18.09
2023-06-29T22:41:53.233Z,18.13
2023-06-29T22:44:21.881Z,18.14
2023-06-29T22:46:50.631Z,18.10
2023-06-29T22:49:19.957Z,18.15
2023-06-29T22:51:48.514Z,18.15
2023-06-29T22:54:17.184Z,18.13
2023-06-29T22:56:45.938Z,18.03
2023-06-29T22:59:14.676Z,18.00
2023-06-29T23:01:43.374Z,17.93
2023-06-29T23:04:12.223Z,17.86
2023-06-29T23:06:41.902Z,17.75
2023-06-29T23:09:10.991Z,17.71
2023-06-29T23:11:41.008Z,17.72
2023-06-29T23:14:15.508Z,17.63
2023-06-29T23:16:47.644Z,17.65
2023-06-29T23:19:16.561Z,17.65
2023-06-29T23:21:45.165Z,17.62
2023-06-29T23:24:16.630Z,17.66
2023-06-29T23:26:46.804Z,17.67
2023-06-29T23:29:18.364Z,17.64
2023-06-29T23:31:47.269Z,17.82
2023-06-29T23:34:16.705Z,17.87
2023-06-29T23:36:45.354Z,17.81
2023-06-29T23:39:14.587Z,17.88
2023-06-29T23:41:43.302Z,17.90
2023-06-29T23:44:12.496Z,17.97
2023-06-29T23:46:42.035Z,18.01
2023-06-29T23:49:16.312Z,17.99
2023-06-29T23:51:45.945Z,17.97
2023-06-29T23:54:16.697Z,17.93
2023-06-29T23:56:49.693Z,17.90
2023-06-29T23:59:19.041Z,17.91
